sensor_id;sensor_type;location;lat;lon;timestamp;P1;durP1;ratioP1;P2;durP2;ratioP2
50012;SDS011;35901;48.694;9.476;2023-03-01T00:00:25;18.00;;;13.23;;
50012;SDS011;35901;48.694;9.476;2023-03-01T00:02:52;20.00;;;13.53;;
50012;SDS011;35901;48.694;9.476;2023-03-01T00:05:18;18.70;;;13.30;;
50012;SDS011;35901;48.694;9.476;2023-03-01T00:07:44;20.70;;;13.60;;
50012;SDS011;35901;48.694;9.476;2023-03-01T00:10:13;22.83;;;16.37;;
50012;SDS011;35901;48.694;9.476;2023-03-01T00:12:38;22.53;;;15.87;;
50012;SDS011;35901;48.694;9.476;2023-03-01T00:15:04;19.90;;;14.83;;
50012;SDS011;35901;48.694;9.476;2023-03-01T00:17:30;23.07;;;15.17;;
50012;SDS011;35901;48.694;9.476;2023-03-01T00:19:56;20.63;;;14.77;;
50012;SDS011;35901;48.694;9.476;2023-03-01T00:22:22;21.57;;;14.47;;
50012;SDS011;35901;48.694;9.476;2023-03-01T00:24:48;21.67;;;15.07;;
50012;SDS011;35901;48.694;9.476;2023-03-01T00:27:14;21.60;;;15.10;;
50012;SDS011;35901;48.694;9.476;2023-03-01T00:29:39;20.27;;;14.87;;
50012;SDS011;35901;48.694;9.476;2023-03-01T00:32:05;21.80;;;14.63;;
50012;SDS011;35901;48.694;9.476;2023-03-01T00:34:30;20.30;;;14.27;;
50012;SDS011;35901;48.694;9.476;2023-03-01T00:36:56;22.20;;;15.93;;
50012;SDS011;35901;48.694;9.476;2023-03-01T00:39:29;21.33;;;15.13;;
50012;SDS011;35901;48.694;9.476;2023-03-01T00:41:56;21.70;;;15.40;;
50012;SDS011;35901;48.694;9.476;2023-03-01T00:44:21;21.90;;;15.00;;
50012;SDS011;35901;48.694;9.476;2023-03-01T00:46:48;20.70;;;14.47;;
50012;SDS011;35901;48.694;9.476;2023-03-01T00:49:14;18.57;;;14.07;;
50012;SDS011;35901;48.694;9.476;2023-03-01T00:51:39;22.23;;;14.90;;
50012;SDS011;35901;48.694;9.476;2023-03-01T00:54:09;18.87;;;13.00;;
50012;SDS011;35901;48.694;9.476;2023-03-01T00:56:35;21.87;;;15.13;;
50012;SDS011;35901;48.694;9.476;2023-03-01T00:59:01;19.13;;;13.57;;
50012;SDS011;35901;48.694;9.476;2023-03-01T01:01:28;22.33;;;15.30;;
50012;SDS011;35901;48.694;9.476;2023-03-01T01:03:56;24.97;;;16.83;;
50012;SDS011;35901;48.694;9.476;2023-03-01T01:06:38;24.13;;;15.27;;
50012;SDS011;35901;48.694;9.476;2023-03-01T01:09:10;27.60;;;17.07;;
50012;SDS011;35901;48.694;9.476;2023-03-01T01:11:48;23.00;;;16.27;;
50012;SDS011;35901;48.694;9.476;2023-03-01T01:14:16;24.13;;;15.67;;
50012;SDS011;35901;48.694;9.476;2023-03-01T01:16:42;25.70;;;17.37;;
50012;SDS011;35901;48.694;9.476;2023-03-01T01:19:09;24.30;;;16.67;;
50012;SDS011;35901;48.694;9.476;2023-03-01T01:21:36;24.67;;;17.40;;
50012;SDS011;35901;48.694;9.476;2023-03-01T01:24:03;25.23;;;16.43;;
50012;SDS011;35901;48.694;9.476;2023-03-01T01:26:31;25.47;;;16.20;;
50012;SDS011;35901;48.694;9.476;2023-03-01T01:28:58;24.40;;;16.70;;
50012;SDS011;35901;48.694;9.476;2023-03-01T01:31:25;23.77;;;16.50;;
50012;SDS011;35901;48.694;9.476;2023-03-01T01:33:54;24.90;;;15.33;;
50012;SDS011;35901;48.694;9.476;2023-03-01T01:36:21;20.77;;;15.13;;
50012;SDS011;35901;48.694;9.476;2023-03-01T01:38:47;21.87;;;14.83;;
50012;SDS011;35901;48.694;9.476;2023-03-01T01:41:13;21.10;;;15.73;;
50012;SDS011;35901;48.694;9.476;2023-03-01T01:48:57;21.27;;;14.47;;
50012;SDS011;35901;48.694;9.476;2023-03-01T01:51:28;17.60;;;13.70;;
50012;SDS011;35901;48.694;9.476;2023-03-01T01:54:05;20.67;;;15.00;;
50012;SDS011;35901;48.694;9.476;2023-03-01T01:56:39;20.00;;;15.00;;
50012;SDS011;35901;48.694;9.476;2023-03-01T01:59:09;23.17;;;15.43;;
50012;SDS011;35901;48.694;9.476;2023-03-01T02:01:36;23.60;;;15.73;;
50012;SDS011;35901;48.694;9.476;2023-03-01T02:04:02;21.90;;;15.57;;
50012;SDS011;35901;48.694;9.476;2023-03-01T02:06:37;22.57;;;16.10;;
50012;SDS011;35901;48.694;9.476;2023-03-01T02:09:09;21.03;;;15.67;;
50012;SDS011;35901;48.694;9.476;2023-03-01T02:11:37;23.00;;;15.70;;
50012;SDS011;35901;48.694;9.476;2023-03-01T02:14:03;22.30;;;16.27;;
50012;SDS011;35901;48.694;9.476;2023-03-01T02:16:30;22.77;;;15.37;;
50012;SDS011;35901;48.694;9.476;2023-03-01T02:18:56;23.13;;;15.97;;
50012;SDS011;35901;48.694;9.476;2023-03-01T02:24:10;21.90;;;15.37;;
50012;SDS011;35901;48.694;9.476;2023-03-01T02:26:51;21.57;;;14.40;;
50012;SDS011;35901;48.694;9.476;2023-03-01T02:29:20;21.97;;;15.10;;
50012;SDS011;35901;48.694;9.476;2023-03-01T02:31:47;20.53;;;15.00;;
50012;SDS011;35901;48.694;9.476;2023-03-01T02:34:16;21.00;;;15.90;;
50012;SDS011;35901;48.694;9.476;2023-03-01T02:36:46;24.57;;;15.80;;
50012;SDS011;35901;48.694;9.476;2023-03-01T02:39:41;18.83;;;13.73;;
50012;SDS011;35901;48.694;9.476;2023-03-01T02:42:12;19.73;;;14.43;;
50012;SDS011;35901;48.694;9.476;2023-03-01T02:44:40;21.30;;;15.10;;
50012;SDS011;35901;48.694;9.476;2023-03-01T02:47:06;22.10;;;17.00;;
50012;SDS011;35901;48.694;9.476;2023-03-01T02:49:33;26.00;;;15.47;;
50012;SDS011;35901;48.694;9.476;2023-03-01T02:55:05;22.70;;;17.00;;
50012;SDS011;35901;48.694;9.476;2023-03-01T02:57:40;20.10;;;15.20;;
50012;SDS011;35901;48.694;9.476;2023-03-01T03:00:11;22.60;;;15.20;;
50012;SDS011;35901;48.694;9.476;2023-03-01T03:02:49;20.57;;;15.50;;
50012;SDS011;35901;48.694;9.476;2023-03-01T03:05:26;24.50;;;16.67;;
50012;SDS011;35901;48.694;9.476;2023-03-01T03:07:56;21.80;;;15.43;;
50012;SDS011;35901;48.694;9.476;2023-03-01T03:10:25;23.97;;;16.53;;
50012;SDS011;35901;48.694;9.476;2023-03-01T03:13:00;20.67;;;14.80;;
50012;SDS011;35901;48.694;9.476;2023-03-01T03:15:31;21.93;;;14.93;;
50012;SDS011;35901;48.694;9.476;2023-03-01T03:18:02;23.87;;;17.40;;
50012;SDS011;35901;48.694;9.476;2023-03-01T03:20:29;22.33;;;16.20;;
50012;SDS011;35901;48.694;9.476;2023-03-01T03:22:57;21.93;;;15.87;;
50012;SDS011;35901;48.694;9.476;2023-03-01T03:25:24;25.33;;;17.30;;
50012;SDS011;35901;48.694;9.476;2023-03-01T03:27:51;25.40;;;17.40;;
50012;SDS011;35901;48.694;9.476;2023-03-01T03:30:23;23.30;;;14.53;;
50012;SDS011;35901;48.694;9.476;2023-03-01T03:32:50;22.50;;;15.87;;
50012;SDS011;35901;48.694;9.476;2023-03-01T03:35:29;27.07;;;17.53;;
50012;SDS011;35901;48.694;9.476;2023-03-01T03:37:56;22.07;;;14.63;;
50012;SDS011;35901;48.694;9.476;2023-03-01T03:40:27;28.43;;;16.73;;
50012;SDS011;35901;48.694;9.476;2023-03-01T03:42:58;21.73;;;15.53;;
50012;SDS011;35901;48.694;9.476;2023-03-01T03:45:24;22.73;;;16.57;;
50012;SDS011;35901;48.694;9.476;2023-03-01T03:47:49;21.70;;;15.43;;
50012;SDS011;35901;48.694;9.476;2023-03-01T03:50:15;24.47;;;16.73;;
50012;SDS011;35901;48.694;9.476;2023-03-01T03:52:42;23.03;;;16.97;;
50012;SDS011;35901;48.694;9.476;2023-03-01T03:55:09;23.07;;;17.37;;
50012;SDS011;35901;48.694;9.476;2023-03-01T03:57:36;23.40;;;16.30;;
50012;SDS011;35901;48.694;9.476;2023-03-01T04:00:03;23.67;;;17.47;;
50012;SDS011;35901;48.694;9.476;2023-03-01T04:02:37;23.37;;;16.47;;
50012;SDS011;35901;48.694;9.476;2023-03-01T04:05:06;21.07;;;16.33;;
50012;SDS011;35901;48.694;9.476;2023-03-01T04:07:33;22.13;;;15.80;;
50012;SDS011;35901;48.694;9.476;2023-03-01T04:10:00;22.57;;;16.80;;
50012;SDS011;35901;48.694;9.476;2023-03-01T04:12:26;24.07;;;16.80;;
50012;SDS011;35901;48.694;9.476;2023-03-01T04:14:52;23.63;;;17.87;;
50012;SDS011;35901;48.694;9.476;2023-03-01T04:17:18;23.47;;;17.27;;
50012;SDS011;35901;48.694;9.476;2023-03-01T04:19:44;22.43;;;16.17;;
50012;SDS011;35901;48.694;9.476;2023-03-01T04:22:13;22.90;;;16.37;;
50012;SDS011;35901;48.694;9.476;2023-03-01T04:24:42;22.50;;;16.43;;
50012;SDS011;35901;48.694;9.476;2023-03-01T04:27:08;24.63;;;16.33;;
50012;SDS011;35901;48.694;9.476;2023-03-01T04:29:34;22.80;;;16.83;;
50012;SDS011;35901;48.694;9.476;2023-03-01T04:32:00;25.97;;;17.53;;
50012;SDS011;35901;48.694;9.476;2023-03-01T04:34:25;22.13;;;16.23;;
50012;SDS011;35901;48.694;9.476;2023-03-01T04:36:54;24.70;;;17.07;;
50012;SDS011;35901;48.694;9.476;2023-03-01T04:39:19;25.87;;;18.00;;
50012;SDS011;35901;48.694;9.476;2023-03-01T04:41:46;23.80;;;17.03;;
50012;SDS011;35901;48.694;9.476;2023-03-01T04:44:12;22.67;;;16.60;;
50012;SDS011;35901;48.694;9.476;2023-03-01T04:46:38;22.23;;;16.53;;
50012;SDS011;35901;48.694;9.476;2023-03-01T04:49:04;21.07;;;15.90;;
50012;SDS011;35901;48.694;9.476;2023-03-01T04:51:30;22.23;;;15.43;;
50012;SDS011;35901;48.694;9.476;2023-03-01T04:53:57;20.37;;;15.73;;
50012;SDS011;35901;48.694;9.476;2023-03-01T04:56:23;23.90;;;17.43;;
50012;SDS011;35901;48.694;9.476;2023-03-01T04:58:49;22.70;;;16.77;;
50012;SDS011;35901;48.694;9.476;2023-03-01T05:01:18;24.50;;;17.53;;
50012;SDS011;35901;48.694;9.476;2023-03-01T05:03:49;24.73;;;17.57;;
50012;SDS011;35901;48.694;9.476;2023-03-01T05:06:16;23.87;;;17.67;;
50012;SDS011;35901;48.694;9.476;2023-03-01T05:08:43;23.50;;;16.23;;
50012;SDS011;35901;48.694;9.476;2023-03-01T05:11:09;25.47;;;17.70;;
50012;SDS011;35901;48.694;9.476;2023-03-01T05:13:36;24.00;;;17.00;;
50012;SDS011;35901;48.694;9.476;2023-03-01T05:16:03;24.20;;;17.57;;
50012;SDS011;35901;48.694;9.476;2023-03-01T05:18:31;23.57;;;16.83;;
50012;SDS011;35901;48.694;9.476;2023-03-01T05:21:16;27.00;;;17.80;;
50012;SDS011;35901;48.694;9.476;2023-03-01T05:23:42;26.97;;;17.80;;
50012;SDS011;35901;48.694;9.476;2023-03-01T05:26:08;25.07;;;17.67;;
50012;SDS011;35901;48.694;9.476;2023-03-01T05:28:34;23.67;;;17.03;;
50012;SDS011;35901;48.694;9.476;2023-03-01T05:31:00;24.07;;;17.17;;
50012;SDS011;35901;48.694;9.476;2023-03-01T05:33:26;27.37;;;18.77;;
50012;SDS011;35901;48.694;9.476;2023-03-01T05:35:52;25.63;;;17.67;;
50012;SDS011;35901;48.694;9.476;2023-03-01T05:38:19;26.57;;;18.40;;
50012;SDS011;35901;48.694;9.476;2023-03-01T05:40:46;28.13;;;18.67;;
50012;SDS011;35901;48.694;9.476;2023-03-01T05:43:13;27.40;;;18.63;;
50012;SDS011;35901;48.694;9.476;2023-03-01T05:45:40;25.53;;;17.90;;
50012;SDS011;35901;48.694;9.476;2023-03-01T05:48:07;25.53;;;18.27;;
50012;SDS011;35901;48.694;9.476;2023-03-01T05:50:34;25.67;;;18.50;;
50012;SDS011;35901;48.694;9.476;2023-03-01T05:53:05;25.93;;;18.10;;
50012;SDS011;35901;48.694;9.476;2023-03-01T05:55:34;26.43;;;17.77;;
50012;SDS011;35901;48.694;9.476;2023-03-01T05:58:01;26.50;;;18.67;;
50012;SDS011;35901;48.694;9.476;2023-03-01T06:00:28;27.90;;;18.47;;
50012;SDS011;35901;48.694;9.476;2023-03-01T06:02:55;25.30;;;17.63;;
50012;SDS011;35901;48.694;9.476;2023-03-01T06:05:22;25.23;;;18.30;;
50012;SDS011;35901;48.694;9.476;2023-03-01T06:07:49;24.97;;;17.80;;
50012;SDS011;35901;48.694;9.476;2023-03-01T06:10:15;26.07;;;17.83;;
50012;SDS011;35901;48.694;9.476;2023-03-01T06:12:42;23.90;;;16.87;;
50012;SDS011;35901;48.694;9.476;2023-03-01T06:15:09;24.20;;;17.63;;
50012;SDS011;35901;48.694;9.476;2023-03-01T06:17:36;24.40;;;16.90;;
50012;SDS011;35901;48.694;9.476;2023-03-01T06:20:13;22.13;;;15.77;;
50012;SDS011;35901;48.694;9.476;2023-03-01T06:22:44;24.37;;;17.33;;
50012;SDS011;35901;48.694;9.476;2023-03-01T06:25:11;25.10;;;17.47;;
50012;SDS011;35901;48.694;9.476;2023-03-01T06:27:39;23.53;;;16.90;;
50012;SDS011;35901;48.694;9.476;2023-03-01T06:30:05;22.53;;;16.50;;
50012;SDS011;35901;48.694;9.476;2023-03-01T06:32:33;23.57;;;17.70;;
50012;SDS011;35901;48.694;9.476;2023-03-01T06:34:58;25.53;;;18.30;;
50012;SDS011;35901;48.694;9.476;2023-03-01T06:37:24;24.57;;;17.87;;
50012;SDS011;35901;48.694;9.476;2023-03-01T06:39:50;23.70;;;17.33;;
50012;SDS011;35901;48.694;9.476;2023-03-01T06:42:16;24.40;;;17.97;;
50012;SDS011;35901;48.694;9.476;2023-03-01T06:44:42;21.73;;;16.13;;
50012;SDS011;35901;48.694;9.476;2023-03-01T06:47:08;21.60;;;15.23;;
50012;SDS011;35901;48.694;9.476;2023-03-01T06:49:34;21.93;;;17.17;;
50012;SDS011;35901;48.694;9.476;2023-03-01T06:52:00;23.80;;;17.20;;
50012;SDS011;35901;48.694;9.476;2023-03-01T06:54:25;26.03;;;18.53;;
50012;SDS011;35901;48.694;9.476;2023-03-01T06:56:51;23.27;;;16.20;;
50012;SDS011;35901;48.694;9.476;2023-03-01T06:59:17;23.03;;;17.40;;
50012;SDS011;35901;48.694;9.476;2023-03-01T07:01:43;22.87;;;16.70;;
50012;SDS011;35901;48.694;9.476;2023-03-01T07:04:09;21.80;;;16.70;;
50012;SDS011;35901;48.694;9.476;2023-03-01T07:06:35;22.93;;;15.60;;
50012;SDS011;35901;48.694;9.476;2023-03-01T07:09:01;20.53;;;15.77;;
50012;SDS011;35901;48.694;9.476;2023-03-01T07:11:27;22.13;;;16.90;;
50012;SDS011;35901;48.694;9.476;2023-03-01T07:13:53;19.73;;;15.73;;
50012;SDS011;35901;48.694;9.476;2023-03-01T07:16:19;21.00;;;16.07;;
50012;SDS011;35901;48.694;9.476;2023-03-01T07:18:45;22.77;;;15.67;;
50012;SDS011;35901;48.694;9.476;2023-03-01T07:21:12;21.53;;;16.03;;
50012;SDS011;35901;48.694;9.476;2023-03-01T07:23:39;21.47;;;14.73;;
50012;SDS011;35901;48.694;9.476;2023-03-01T07:26:05;19.57;;;15.63;;
50012;SDS011;35901;48.694;9.476;2023-03-01T07:28:30;21.43;;;14.17;;
50012;SDS011;35901;48.694;9.476;2023-03-01T07:31:04;19.13;;;14.57;;
50012;SDS011;35901;48.694;9.476;2023-03-01T07:33:31;18.63;;;13.10;;
50012;SDS011;35901;48.694;9.476;2023-03-01T07:36:00;20.80;;;14.57;;
50012;SDS011;35901;48.694;9.476;2023-03-01T07:38:27;19.80;;;14.93;;
50012;SDS011;35901;48.694;9.476;2023-03-01T07:40:57;18.70;;;15.67;;
50012;SDS011;35901;48.694;9.476;2023-03-01T07:43:28;20.27;;;14.57;;
50012;SDS011;35901;48.694;9.476;2023-03-01T07:45:54;20.93;;;15.63;;
50012;SDS011;35901;48.694;9.476;2023-03-01T07:48:19;20.40;;;14.87;;
50012;SDS011;35901;48.694;9.476;2023-03-01T07:50:45;18.13;;;14.47;;
50012;SDS011;35901;48.694;9.476;2023-03-01T07:53:12;18.90;;;14.90;;
50012;SDS011;35901;48.694;9.476;2023-03-01T07:55:38;20.27;;;15.13;;
50012;SDS011;35901;48.694;9.476;2023-03-01T07:58:03;17.67;;;13.67;;
50012;SDS011;35901;48.694;9.476;2023-03-01T08:00:29;14.03;;;10.13;;
50012;SDS011;35901;48.694;9.476;2023-03-01T08:02:58;18.50;;;13.60;;
50012;SDS011;35901;48.694;9.476;2023-03-01T08:05:24;23.50;;;15.33;;
50012;SDS011;35901;48.694;9.476;2023-03-01T08:07:50;20.03;;;15.37;;
50012;SDS011;35901;48.694;9.476;2023-03-01T08:10:16;19.93;;;15.40;;
50012;SDS011;35901;48.694;9.476;2023-03-01T08:12:42;16.53;;;12.40;;
50012;SDS011;35901;48.694;9.476;2023-03-01T08:15:07;20.50;;;16.27;;
50012;SDS011;35901;48.694;9.476;2023-03-01T08:17:34;21.43;;;15.50;;
50012;SDS011;35901;48.694;9.476;2023-03-01T08:19:59;19.60;;;13.93;;
50012;SDS011;35901;48.694;9.476;2023-03-01T08:22:25;22.23;;;15.53;;
50012;SDS011;35901;48.694;9.476;2023-03-01T08:24:51;19.03;;;15.03;;
50012;SDS011;35901;48.694;9.476;2023-03-01T08:27:16;19.13;;;13.50;;
50012;SDS011;35901;48.694;9.476;2023-03-01T08:29:42;21.70;;;17.23;;
50012;SDS011;35901;48.694;9.476;2023-03-01T08:32:08;20.27;;;15.60;;
50012;SDS011;35901;48.694;9.476;2023-03-01T08:34:34;20.50;;;14.80;;
50012;SDS011;35901;48.694;9.476;2023-03-01T08:37:00;19.90;;;15.87;;
50012;SDS011;35901;48.694;9.476;2023-03-01T08:39:26;19.40;;;15.40;;
50012;SDS011;35901;48.694;9.476;2023-03-01T08:41:52;21.77;;;16.27;;
50012;SDS011;35901;48.694;9.476;2023-03-01T08:44:18;20.67;;;17.20;;
50012;SDS011;35901;48.694;9.476;2023-03-01T08:46:46;21.40;;;15.67;;
50012;SDS011;35901;48.694;9.476;2023-03-01T08:49:16;20.37;;;15.93;;
50012;SDS011;35901;48.694;9.476;2023-03-01T08:51:43;22.17;;;16.60;;
50012;SDS011;35901;48.694;9.476;2023-03-01T08:54:11;19.80;;;16.00;;
50012;SDS011;35901;48.694;9.476;2023-03-01T08:56:40;21.27;;;15.03;;
50012;SDS011;35901;48.694;9.476;2023-03-01T08:59:06;21.10;;;16.13;;
50012;SDS011;35901;48.694;9.476;2023-03-01T09:01:32;18.83;;;14.43;;
50012;SDS011;35901;48.694;9.476;2023-03-01T09:03:58;14.40;;;8.80;;
50012;SDS011;35901;48.694;9.476;2023-03-01T09:06:24;12.90;;;9.27;;
50012;SDS011;35901;48.694;9.476;2023-03-01T09:08:50;18.40;;;14.00;;
50012;SDS011;35901;48.694;9.476;2023-03-01T09:11:17;21.23;;;16.53;;
50012;SDS011;35901;48.694;9.476;2023-03-01T09:13:44;13.47;;;9.97;;
50012;SDS011;35901;48.694;9.476;2023-03-01T09:16:12;19.40;;;13.60;;
50012;SDS011;35901;48.694;9.476;2023-03-01T09:18:39;13.90;;;10.43;;
50012;SDS011;35901;48.694;9.476;2023-03-01T09:21:06;15.80;;;12.20;;
50012;SDS011;35901;48.694;9.476;2023-03-01T09:23:34;19.07;;;15.47;;
50012;SDS011;35901;48.694;9.476;2023-03-01T09:26:09;19.53;;;16.57;;
50012;SDS011;35901;48.694;9.476;2023-03-01T09:28:36;16.43;;;12.33;;
50012;SDS011;35901;48.694;9.476;2023-03-01T09:31:02;18.97;;;14.70;;
50012;SDS011;35901;48.694;9.476;2023-03-01T09:33:29;19.53;;;17.17;;
50012;SDS011;35901;48.694;9.476;2023-03-01T09:36:03;19.10;;;15.97;;
50012;SDS011;35901;48.694;9.476;2023-03-01T09:38:32;19.87;;;15.83;;
50012;SDS011;35901;48.694;9.476;2023-03-01T09:40:59;17.93;;;15.23;;
50012;SDS011;35901;48.694;9.476;2023-03-01T09:43:44;16.70;;;12.70;;
50012;SDS011;35901;48.694;9.476;2023-03-01T09:46:18;18.83;;;16.40;;
50012;SDS011;35901;48.694;9.476;2023-03-01T09:49:01;20.30;;;15.50;;
50012;SDS011;35901;48.694;9.476;2023-03-01T09:51:35;20.37;;;14.83;;
50012;SDS011;35901;48.694;9.476;2023-03-01T09:54:02;19.43;;;15.93;;
50012;SDS011;35901;48.694;9.476;2023-03-01T09:56:32;19.87;;;16.10;;
50012;SDS011;35901;48.694;9.476;2023-03-01T10:01:59;19.17;;;15.50;;
50012;SDS011;35901;48.694;9.476;2023-03-01T10:04:50;20.00;;;16.17;;
50012;SDS011;35901;48.694;9.476;2023-03-01T10:09:50;17.23;;;15.47;;
50012;SDS011;35901;48.694;9.476;2023-03-01T10:12:27;18.30;;;15.23;;
50012;SDS011;35901;48.694;9.476;2023-03-01T10:15:07;16.83;;;13.57;;
50012;SDS011;35901;48.694;9.476;2023-03-01T10:20:16;17.60;;;15.43;;
50012;SDS011;35901;48.694;9.476;2023-03-01T10:22:42;17.87;;;15.43;;
50012;SDS011;35901;48.694;9.476;2023-03-01T10:25:13;18.83;;;16.60;;
50012;SDS011;35901;48.694;9.476;2023-03-01T10:27:46;16.77;;;12.83;;
50012;SDS011;35901;48.694;9.476;2023-03-01T10:30:34;15.80;;;12.80;;
50012;SDS011;35901;48.694;9.476;2023-03-01T10:33:05;17.50;;;15.00;;
50012;SDS011;35901;48.694;9.476;2023-03-01T10:35:47;18.60;;;15.00;;
50012;SDS011;35901;48.694;9.476;2023-03-01T10:38:14;20.23;;;15.80;;
50012;SDS011;35901;48.694;9.476;2023-03-01T10:40:52;18.43;;;15.07;;
50012;SDS011;35901;48.694;9.476;2023-03-01T10:43:23;15.17;;;10.77;;
50012;SDS011;35901;48.694;9.476;2023-03-01T10:45:57;15.77;;;11.53;;
50012;SDS011;35901;48.694;9.476;2023-03-01T10:48:23;18.20;;;13.67;;
50012;SDS011;35901;48.694;9.476;2023-03-01T10:53:25;15.43;;;11.70;;
50012;SDS011;35901;48.694;9.476;2023-03-01T10:55:59;18.07;;;12.90;;
50012;SDS011;35901;48.694;9.476;2023-03-01T10:58:39;9.53;;;8.33;;
50012;SDS011;35901;48.694;9.476;2023-03-01T11:03:41;14.57;;;12.80;;
50012;SDS011;35901;48.694;9.476;2023-03-01T11:08:42;16.47;;;13.10;;
50012;SDS011;35901;48.694;9.476;2023-03-01T11:11:14;16.47;;;13.40;;
50012;SDS011;35901;48.694;9.476;2023-03-01T11:13:54;15.83;;;12.30;;
50012;SDS011;35901;48.694;9.476;2023-03-01T11:19:26;12.93;;;10.30;;
50012;SDS011;35901;48.694;9.476;2023-03-01T11:24:48;13.03;;;10.07;;
50012;SDS011;35901;48.694;9.476;2023-03-01T11:27:23;14.27;;;9.57;;
50012;SDS011;35901;48.694;9.476;2023-03-01T11:29:59;15.47;;;13.03;;
50012;SDS011;35901;48.694;9.476;2023-03-01T11:32:31;15.87;;;13.33;;
50012;SDS011;35901;48.694;9.476;2023-03-01T11:35:13;16.40;;;12.87;;
50012;SDS011;35901;48.694;9.476;2023-03-01T11:46:18;15.97;;;13.40;;
50012;SDS011;35901;48.694;9.476;2023-03-01T11:51:40;16.17;;;13.43;;
50012;SDS011;35901;48.694;9.476;2023-03-01T12:03:55;18.67;;;15.37;;
50012;SDS011;35901;48.694;9.476;2023-03-01T12:21:01;17.77;;;12.13;;
50012;SDS011;35901;48.694;9.476;2023-03-01T12:23:52;17.00;;;15.30;;
50012;SDS011;35901;48.694;9.476;2023-03-01T12:26:38;16.13;;;11.80;;
50012;SDS011;35901;48.694;9.476;2023-03-01T12:36:55;15.90;;;14.17;;
50012;SDS011;35901;48.694;9.476;2023-03-01T12:48:15;13.13;;;10.17;;
50012;SDS011;35901;48.694;9.476;2023-03-01T12:51:02;13.70;;;8.87;;
50012;SDS011;35901;48.694;9.476;2023-03-01T12:53:32;14.93;;;12.50;;
50012;SDS011;35901;48.694;9.476;2023-03-01T12:56:05;15.17;;;13.43;;
50012;SDS011;35901;48.694;9.476;2023-03-01T12:58:36;15.20;;;12.13;;
50012;SDS011;35901;48.694;9.476;2023-03-01T13:17:48;15.07;;;13.57;;
50012;SDS011;35901;48.694;9.476;2023-03-01T13:20:16;17.40;;;13.37;;
50012;SDS011;35901;48.694;9.476;2023-03-01T13:22:45;15.93;;;14.23;;
50012;SDS011;35901;48.694;9.476;2023-03-01T13:25:15;14.70;;;13.17;;
50012;SDS011;35901;48.694;9.476;2023-03-01T13:27:43;14.10;;;12.23;;
50012;SDS011;35901;48.694;9.476;2023-03-01T13:33:33;14.17;;;12.67;;
50012;SDS011;35901;48.694;9.476;2023-03-01T13:36:05;14.70;;;12.90;;
50012;SDS011;35901;48.694;9.476;2023-03-01T13:38:47;14.43;;;12.93;;
50012;SDS011;35901;48.694;9.476;2023-03-01T13:44:11;14.43;;;12.93;;
50012;SDS011;35901;48.694;9.476;2023-03-01T13:46:46;15.83;;;12.63;;
50012;SDS011;35901;48.694;9.476;2023-03-01T13:49:14;15.07;;;13.57;;
50012;SDS011;35901;48.694;9.476;2023-03-01T13:51:46;14.10;;;12.67;;
50012;SDS011;35901;48.694;9.476;2023-03-01T13:54:12;15.67;;;13.80;;
50012;SDS011;35901;48.694;9.476;2023-03-01T13:56:40;14.00;;;12.37;;
50012;SDS011;35901;48.694;9.476;2023-03-01T13:59:18;13.53;;;11.33;;
50012;SDS011;35901;48.694;9.476;2023-03-01T14:01:59;16.50;;;12.17;;
50012;SDS011;35901;48.694;9.476;2023-03-01T14:07:08;14.60;;;13.10;;
50012;SDS011;35901;48.694;9.476;2023-03-01T14:09:45;14.40;;;12.90;;
50012;SDS011;35901;48.694;9.476;2023-03-01T14:17:44;15.97;;;12.17;;
50012;SDS011;35901;48.694;9.476;2023-03-01T14:20:27;16.47;;;14.17;;
50012;SDS011;35901;48.694;9.476;2023-03-01T14:22:57;15.67;;;14.07;;
50012;SDS011;35901;48.694;9.476;2023-03-01T14:25:30;16.77;;;14.63;;
50012;SDS011;35901;48.694;9.476;2023-03-01T14:31:25;15.80;;;13.17;;
50012;SDS011;35901;48.694;9.476;2023-03-01T14:33:54;17.47;;;13.17;;
50012;SDS011;35901;48.694;9.476;2023-03-01T14:36:25;16.43;;;13.23;;
50012;SDS011;35901;48.694;9.476;2023-03-01T14:38:55;16.63;;;14.83;;
50012;SDS011;35901;48.694;9.476;2023-03-01T14:41:25;18.13;;;13.73;;
50012;SDS011;35901;48.694;9.476;2023-03-01T14:43:57;16.70;;;14.90;;
50012;SDS011;35901;48.694;9.476;2023-03-01T14:46:32;15.97;;;13.33;;
50012;SDS011;35901;48.694;9.476;2023-03-01T14:49:11;15.97;;;11.13;;
50012;SDS011;35901;48.694;9.476;2023-03-01T14:51:41;10.63;;;8.90;;
50012;SDS011;35901;48.694;9.476;2023-03-01T14:54:18;15.53;;;9.50;;
50012;SDS011;35901;48.694;9.476;2023-03-01T14:57:03;19.20;;;15.03;;
50012;SDS011;35901;48.694;9.476;2023-03-01T14:59:29;16.33;;;13.37;;
50012;SDS011;35901;48.694;9.476;2023-03-01T15:01:58;15.50;;;12.47;;
50012;SDS011;35901;48.694;9.476;2023-03-01T15:04:25;15.57;;;13.63;;
50012;SDS011;35901;48.694;9.476;2023-03-01T15:06:53;15.57;;;13.20;;
50012;SDS011;35901;48.694;9.476;2023-03-01T15:09:20;17.67;;;14.17;;
50012;SDS011;35901;48.694;9.476;2023-03-01T15:11:47;16.60;;;14.07;;
50012;SDS011;35901;48.694;9.476;2023-03-01T15:20:04;15.37;;;12.23;;
50012;SDS011;35901;48.694;9.476;2023-03-01T15:22:32;15.73;;;12.50;;
50012;SDS011;35901;48.694;9.476;2023-03-01T15:24:58;17.70;;;13.17;;
50012;SDS011;35901;48.694;9.476;2023-03-01T15:27:24;14.47;;;10.87;;
50012;SDS011;35901;48.694;9.476;2023-03-01T15:30:03;17.47;;;12.87;;
50012;SDS011;35901;48.694;9.476;2023-03-01T15:32:35;13.70;;;12.17;;
50012;SDS011;35901;48.694;9.476;2023-03-01T15:38:26;16.60;;;13.73;;
50012;SDS011;35901;48.694;9.476;2023-03-01T15:40:52;14.47;;;11.90;;
50012;SDS011;35901;48.694;9.476;2023-03-01T15:43:39;16.93;;;12.30;;
50012;SDS011;35901;48.694;9.476;2023-03-01T15:46:15;18.33;;;12.87;;
50012;SDS011;35901;48.694;9.476;2023-03-01T15:48:44;18.40;;;13.13;;
50012;SDS011;35901;48.694;9.476;2023-03-01T15:51:12;15.97;;;13.70;;
50012;SDS011;35901;48.694;9.476;2023-03-01T15:53:39;18.00;;;14.37;;
50012;SDS011;35901;48.694;9.476;2023-03-01T15:56:05;17.23;;;13.93;;
50012;SDS011;35901;48.694;9.476;2023-03-01T15:58:33;18.63;;;13.53;;
50012;SDS011;35901;48.694;9.476;2023-03-01T16:00:58;16.60;;;13.00;;
50012;SDS011;35901;48.694;9.476;2023-03-01T16:03:25;17.37;;;12.97;;
50012;SDS011;35901;48.694;9.476;2023-03-01T16:05:51;17.03;;;13.30;;
50012;SDS011;35901;48.694;9.476;2023-03-01T16:08:17;16.80;;;13.63;;
50012;SDS011;35901;48.694;9.476;2023-03-01T16:10:43;15.07;;;12.30;;
50012;SDS011;35901;48.694;9.476;2023-03-01T16:13:10;18.80;;;13.43;;
50012;SDS011;35901;48.694;9.476;2023-03-01T16:15:39;16.13;;;13.27;;
50012;SDS011;35901;48.694;9.476;2023-03-01T16:18:06;16.10;;;12.93;;
50012;SDS011;35901;48.694;9.476;2023-03-01T16:20:33;14.17;;;9.73;;
50012;SDS011;35901;48.694;9.476;2023-03-01T16:23:00;17.37;;;13.43;;
50012;SDS011;35901;48.694;9.476;2023-03-01T16:25:27;15.33;;;12.97;;
50012;SDS011;35901;48.694;9.476;2023-03-01T16:27:54;14.83;;;12.23;;
50012;SDS011;35901;48.694;9.476;2023-03-01T16:30:21;13.87;;;11.87;;
50012;SDS011;35901;48.694;9.476;2023-03-01T16:32:48;15.67;;;13.00;;
50012;SDS011;35901;48.694;9.476;2023-03-01T16:35:15;18.93;;;13.27;;
50012;SDS011;35901;48.694;9.476;2023-03-01T16:37:43;16.43;;;12.37;;
50012;SDS011;35901;48.694;9.476;2023-03-01T16:40:17;14.87;;;12.27;;